sensor_id;sensor_type;location;lat;lon;timestamp;pressure;altitude;pressure_sealevel;temperature;humidity
29215;BME280;16252;49.816;7.964;2023-07-20T00:01:10;99842.78;;;24.19;37.22
29215;BME280;16252;49.816;7.964;2023-07-20T00:03:35;99852.25;;;24.16;37.13
29215;BME280;16252;49.816;7.964;2023-07-20T00:06:01;99758.75;;;23.26;38.24
29215;BME280;16252;49.816;7.964;2023-07-20T00:08:26;99794.53;;;23.45;38.54
29215;BME280;16252;49.816;7.964;2023-07-20T00:10:51;99843.19;;;23.96;37.17
29215;BME280;16252;49.816;7.964;2023-07-20T00:13:17;99828.34;;;23.57;38.75
29215;BME280;16252;49.816;7.964;2023-07-20T00:15:43;99846.31;;;23.79;37.34
29215;BME280;16252;49.816;7.964;2023-07-20T00:18:09;99843.75;;;23.71;37.12
29215;BME280;16252;49.816;7.964;2023-07-20T00:20:34;99699.31;;;22.54;38.72
29215;BME280;16252;49.816;7.964;2023-07-20T00:22:59;99722.78;;;22.55;39.02
29215;BME280;16252;49.816;7.964;2023-07-20T00:25:25;99750.28;;;22.60;39.48
29215;BME280;16252;49.816;7.964;2023-07-20T00:27:50;99766.06;;;22.71;39.38
29215;BME280;16252;49.816;7.964;2023-07-20T00:30:16;99817.66;;;23.01;39.67
29215;BME280;16252;49.816;7.964;2023-07-20T00:32:44;99766.03;;;22.64;39.72
29215;BME280;16252;49.816;7.964;2023-07-20T00:35:10;99855.91;;;23.07;39.54
29215;BME280;16252;49.816;7.964;2023-07-20T00:37:36;99760.03;;;22.41;39.52
29215;BME280;16252;49.816;7.964;2023-07-20T00:40:02;99749.25;;;22.26;39.75
29215;BME280;16252;49.816;7.964;2023-07-20T00:42:30;99783.94;;;22.45;40.06
29215;BME280;16252;49.816;7.964;2023-07-20T00:44:55;99725.19;;;22.08;40.06
29215;BME280;16252;49.816;7.964;2023-07-20T00:47:21;99845.00;;;22.79;40.39
29215;BME280;16252;49.816;7.964;2023-07-20T00:49:46;99844.59;;;22.82;40.31
29215;BME280;16252;49.816;7.964;2023-07-20T00:52:13;99840.75;;;22.70;40.24
29215;BME280;16252;49.816;7.964;2023-07-20T00:54:40;99856.53;;;22.75;40.17
29215;BME280;16252;49.816;7.964;2023-07-20T00:57:07;99766.09;;;22.15;40.39
29215;BME280;16252;49.816;7.964;2023-07-20T00:59:32;99812.19;;;22.38;40.92
29215;BME280;16252;49.816;7.964;2023-07-20T01:01:58;99746.94;;;22.01;40.52
29215;BME280;16252;49.816;7.964;2023-07-20T01:04:23;99764.19;;;22.08;40.42
29215;BME280;16252;49.816;7.964;2023-07-20T01:07:06;99854.63;;;22.75;40.10
29215;BME280;16252;49.816;7.964;2023-07-20T01:12:30;99851.50;;;22.78;40.06
29215;BME280;16252;49.816;7.964;2023-07-20T01:14:58;99833.03;;;22.45;40.72
29215;BME280;16252;49.816;7.964;2023-07-20T01:17:23;99860.19;;;22.60;40.66
29215;BME280;16252;49.816;7.964;2023-07-20T01:19:49;99850.88;;;22.48;40.79
29215;BME280;16252;49.816;7.964;2023-07-20T01:25:34;99851.72;;;22.48;40.46
29215;BME280;16252;49.816;7.964;2023-07-20T01:32:54;99783.22;;;21.80;40.81
29215;BME280;16252;49.816;7.964;2023-07-20T01:35:21;99855.16;;;22.36;39.38
29215;BME280;16252;49.816;7.964;2023-07-20T01:37:48;99857.06;;;22.35;39.16
29215;BME280;16252;49.816;7.964;2023-07-20T01:40:14;99811.53;;;21.86;40.89
29215;BME280;16252;49.816;7.964;2023-07-20T01:42:44;99852.59;;;22.27;39.45
29215;BME280;16252;49.816;7.964;2023-07-20T01:45:11;99858.03;;;22.27;39.20
29215;BME280;16252;49.816;7.964;2023-07-20T01:47:36;99842.53;;;22.28;39.13
29215;BME280;16252;49.816;7.964;2023-07-20T01:50:01;99771.22;;;21.53;40.76
29215;BME280;16252;49.816;7.964;2023-07-20T01:52:26;99830.34;;;21.81;40.82
29215;BME280;16252;49.816;7.964;2023-07-20T01:54:52;99771.28;;;21.38;41.23
29215;BME280;16252;49.816;7.964;2023-07-20T01:57:17;99841.03;;;21.82;41.25
29215;BME280;16252;49.816;7.964;2023-07-20T01:59:42;99846.06;;;22.00;39.96
29215;BME280;16252;49.816;7.964;2023-07-20T02:02:08;99846.22;;;21.99;39.50
29215;BME280;16252;49.816;7.964;2023-07-20T02:04:33;99750.47;;;21.16;41.18
29215;BME280;16252;49.816;7.964;2023-07-20T02:06:58;99836.03;;;21.64;41.69
29215;BME280;16252;49.816;7.964;2023-07-20T02:09:24;99726.00;;;20.80;41.98
29215;BME280;16252;49.816;7.964;2023-07-20T02:11:49;99814.69;;;21.32;42.10
29215;BME280;16252;49.816;7.964;2023-07-20T02:14:15;99764.78;;;20.88;42.05
29215;BME280;16252;49.816;7.964;2023-07-20T02:16:40;99776.31;;;21.05;42.22
29215;BME280;16252;49.816;7.964;2023-07-20T02:19:05;99759.72;;;20.85;42.40
29215;BME280;16252;49.816;7.964;2023-07-20T02:21:32;99757.84;;;20.86;42.63
29215;BME280;16252;49.816;7.964;2023-07-20T02:23:57;99849.47;;;21.66;40.70
29215;BME280;16252;49.816;7.964;2023-07-20T02:26:22;99823.50;;;21.34;42.26
29215;BME280;16252;49.816;7.964;2023-07-20T02:28:48;99734.16;;;20.80;42.20
29215;BME280;16252;49.816;7.964;2023-07-20T02:31:13;99841.16;;;21.38;42.38
29215;BME280;16252;49.816;7.964;2023-07-20T02:33:39;99754.03;;;20.80;42.42
29215;BME280;16252;49.816;7.964;2023-07-20T02:36:04;99764.41;;;20.47;45.10
29215;BME280;16252;49.816;7.964;2023-07-20T02:38:29;99785.03;;;20.86;43.64
29215;BME280;16252;49.816;7.964;2023-07-20T02:40:55;99777.16;;;20.91;43.45
29215;BME280;16252;49.816;7.964;2023-07-20T02:43:20;99747.66;;;20.73;43.45
29215;BME280;16252;49.816;7.964;2023-07-20T02:45:45;99779.88;;;20.91;42.95
29215;BME280;16252;49.816;7.964;2023-07-20T02:48:10;99849.88;;;21.48;41.62
29215;BME280;16252;49.816;7.964;2023-07-20T02:50:36;99834.91;;;21.23;42.84
29215;BME280;16252;49.816;7.964;2023-07-20T02:53:02;99813.94;;;21.02;42.96
29215;BME280;16252;49.816;7.964;2023-07-20T02:55:27;99844.84;;;21.45;41.50
29215;BME280;16252;49.816;7.964;2023-07-20T02:57:52;99787.88;;;20.77;42.98
29215;BME280;16252;49.816;7.964;2023-07-20T03:00:17;99858.63;;;21.43;41.32
29215;BME280;16252;49.816;7.964;2023-07-20T03:02:44;99854.22;;;21.42;41.02
29215;BME280;16252;49.816;7.964;2023-07-20T03:05:12;99860.34;;;21.15;42.56
29215;BME280;16252;49.816;7.964;2023-07-20T03:07:38;99857.25;;;21.03;42.86
29215;BME280;16252;49.816;7.964;2023-07-20T03:10:03;99860.13;;;21.16;41.37
29215;BME280;16252;49.816;7.964;2023-07-20T03:12:29;99855.00;;;20.92;42.99
29215;BME280;16252;49.816;7.964;2023-07-20T03:14:54;99860.91;;;20.43;46.03
29215;BME280;16252;49.816;7.964;2023-07-20T03:17:22;99779.16;;;20.14;44.93
29215;BME280;16252;49.816;7.964;2023-07-20T03:19:47;99851.78;;;20.73;44.43
29215;BME280;16252;49.816;7.964;2023-07-20T03:22:12;99780.13;;;20.22;44.26
29215;BME280;16252;49.816;7.964;2023-07-20T03:24:37;99756.78;;;20.12;44.06
29215;BME280;16252;49.816;7.964;2023-07-20T03:27:03;99701.50;;;19.76;43.88
29215;BME280;16252;49.816;7.964;2023-07-20T03:29:28;99785.19;;;20.25;44.25
29215;BME280;16252;49.816;7.964;2023-07-20T03:31:53;99757.06;;;20.03;44.09
29215;BME280;16252;49.816;7.964;2023-07-20T03:34:19;99835.91;;;20.47;44.13
29215;BME280;16252;49.816;7.964;2023-07-20T03:36:44;99816.31;;;20.37;44.26
29215;BME280;16252;49.816;7.964;2023-07-20T03:39:09;99789.19;;;20.14;44.22
29215;BME280;16252;49.816;7.964;2023-07-20T03:41:34;99828.59;;;20.48;44.00
29215;BME280;16252;49.816;7.964;2023-07-20T03:44:00;99843.00;;;20.56;44.24
29215;BME280;16252;49.816;7.964;2023-07-20T03:46:25;99779.38;;;20.13;44.16
29215;BME280;16252;49.816;7.964;2023-07-20T03:48:50;99869.53;;;20.69;44.20
29215;BME280;16252;49.816;7.964;2023-07-20T03:51:16;99809.75;;;20.31;44.36
29215;BME280;16252;49.816;7.964;2023-07-20T03:53:41;99757.53;;;20.06;44.35
29215;BME280;16252;49.816;7.964;2023-07-20T03:56:07;99860.81;;;20.59;44.26
29215;BME280;16252;49.816;7.964;2023-07-20T03:58:32;99801.94;;;20.13;44.77
29215;BME280;16252;49.816;7.964;2023-07-20T04:00:58;99773.44;;;20.09;44.49
29215;BME280;16252;49.816;7.964;2023-07-20T04:03:23;99778.13;;;20.01;44.59
29215;BME280;16252;49.816;7.964;2023-07-20T04:05:53;99738.94;;;19.80;44.62
29215;BME280;16252;49.816;7.964;2023-07-20T04:08:18;99759.16;;;19.92;44.70
29215;BME280;16252;49.816;7.964;2023-07-20T04:10:44;99838.41;;;20.34;44.69
29215;BME280;16252;49.816;7.964;2023-07-20T04:13:09;99806.81;;;20.18;44.71
29215;BME280;16252;49.816;7.964;2023-07-20T04:15:35;99768.47;;;19.98;44.61
29215;BME280;16252;49.816;7.964;2023-07-20T04:18:00;99793.88;;;20.05;44.84
29215;BME280;16252;49.816;7.964;2023-07-20T04:20:26;99810.25;;;20.12;45.01
29215;BME280;16252;49.816;7.964;2023-07-20T04:22:51;99750.06;;;19.70;45.06
29215;BME280;16252;49.816;7.964;2023-07-20T04:27:44;99876.84;;;20.46;44.99
29215;BME280;16252;49.816;7.964;2023-07-20T04:30:11;99862.66;;;20.35;45.32
29215;BME280;16252;49.816;7.964;2023-07-20T04:32:37;99867.75;;;20.39;45.15
29215;BME280;16252;49.816;7.964;2023-07-20T04:35:06;99867.56;;;20.40;45.14
29215;BME280;16252;49.816;7.964;2023-07-20T04:37:32;99826.56;;;20.12;45.37
29215;BME280;16252;49.816;7.964;2023-07-20T04:39:58;99870.81;;;20.35;45.29
29215;BME280;16252;49.816;7.964;2023-07-20T04:42:23;99862.22;;;20.32;45.32
29215;BME280;16252;49.816;7.964;2023-07-20T04:44:49;99875.72;;;20.40;45.39
29215;BME280;16252;49.816;7.964;2023-07-20T04:47:14;99876.91;;;20.38;45.35
29215;BME280;16252;49.816;7.964;2023-07-20T04:49:39;99871.19;;;20.32;45.51
29215;BME280;16252;49.816;7.964;2023-07-20T04:52:04;99853.88;;;20.33;45.53
29215;BME280;16252;49.816;7.964;2023-07-20T04:54:30;99829.84;;;20.22;45.67
29215;BME280;16252;49.816;7.964;2023-07-20T04:56:55;99868.69;;;20.46;45.54
29215;BME280;16252;49.816;7.964;2023-07-20T04:59:20;99830.34;;;20.26;45.55
29215;BME280;16252;49.816;7.964;2023-07-20T05:01:46;99875.44;;;20.50;45.54
29215;BME280;16252;49.816;7.964;2023-07-20T05:04:11;99855.75;;;20.48;45.84
29215;BME280;16252;49.816;7.964;2023-07-20T05:06:36;99859.16;;;20.50;45.43
29215;BME280;16252;49.816;7.964;2023-07-20T05:09:03;99877.09;;;20.59;45.92
29215;BME280;16252;49.816;7.964;2023-07-20T05:11:29;99854.31;;;20.60;45.84
29215;BME280;16252;49.816;7.964;2023-07-20T05:13:54;99839.75;;;20.53;45.86
29215;BME280;16252;49.816;7.964;2023-07-20T05:16:19;99861.44;;;20.76;45.83
29215;BME280;16252;49.816;7.964;2023-07-20T05:18:44;99867.84;;;20.83;45.68
29215;BME280;16252;49.816;7.964;2023-07-20T05:21:10;99873.75;;;20.87;45.84
29215;BME280;16252;49.816;7.964;2023-07-20T05:23:35;99841.97;;;20.72;45.71
29215;BME280;16252;49.816;7.964;2023-07-20T05:26:00;99861.56;;;20.83;45.96
29215;BME280;16252;49.816;7.964;2023-07-20T05:28:26;99852.34;;;20.84;45.95
29215;BME280;16252;49.816;7.964;2023-07-20T05:30:52;99859.69;;;20.98;45.88
29215;BME280;16252;49.816;7.964;2023-07-20T05:33:19;99848.06;;;20.89;45.69
29215;BME280;16252;49.816;7.964;2023-07-20T05:35:44;99859.31;;;21.01;45.96
29215;BME280;16252;49.816;7.964;2023-07-20T05:38:09;99874.78;;;21.15;45.78
29215;BME280;16252;49.816;7.964;2023-07-20T05:40:40;99872.59;;;21.26;45.79
29215;BME280;16252;49.816;7.964;2023-07-20T05:43:06;99856.78;;;21.14;45.62
29215;BME280;16252;49.816;7.964;2023-07-20T05:45:31;99870.28;;;21.23;45.66
29215;BME280;16252;49.816;7.964;2023-07-20T05:47:56;99878.72;;;21.28;45.66
29215;BME280;16252;49.816;7.964;2023-07-20T05:50:21;99885.00;;;21.28;45.63
29215;BME280;16252;49.816;7.964;2023-07-20T05:52:47;99879.38;;;21.30;45.54
29215;BME280;16252;49.816;7.964;2023-07-20T05:55:13;99866.63;;;21.15;45.59
29215;BME280;16252;49.816;7.964;2023-07-20T05:57:38;99865.22;;;21.19;45.81
29215;BME280;16252;49.816;7.964;2023-07-20T06:00:07;99886.09;;;21.34;45.58
29215;BME280;16252;49.816;7.964;2023-07-20T06:02:33;99866.50;;;21.24;45.49
29215;BME280;16252;49.816;7.964;2023-07-20T06:04:58;99898.88;;;21.48;45.36
29215;BME280;16252;49.816;7.964;2023-07-20T06:07:23;99891.75;;;21.47;45.89
29215;BME280;16252;49.816;7.964;2023-07-20T06:09:49;99893.88;;;21.52;45.56
29215;BME280;16252;49.816;7.964;2023-07-20T06:12:14;99869.69;;;21.42;45.56
29215;BME280;16252;49.816;7.964;2023-07-20T06:14:39;99898.19;;;21.61;45.44
29215;BME280;16252;49.816;7.964;2023-07-20T06:17:05;99905.59;;;21.67;45.56
29215;BME280;16252;49.816;7.964;2023-07-20T06:19:30;99892.19;;;21.66;45.73
29215;BME280;16252;49.816;7.964;2023-07-20T06:21:55;99872.78;;;21.54;45.62
29215;BME280;16252;49.816;7.964;2023-07-20T06:24:21;99882.69;;;21.61;45.68
29215;BME280;16252;49.816;7.964;2023-07-20T06:26:46;99875.63;;;21.67;45.60
29215;BME280;16252;49.816;7.964;2023-07-20T06:29:11;99894.47;;;21.83;45.65
29215;BME280;16252;49.816;7.964;2023-07-20T06:31:37;99880.13;;;21.75;45.70
29215;BME280;16252;49.816;7.964;2023-07-20T06:34:02;99896.44;;;22.11;44.41
29215;BME280;16252;49.816;7.964;2023-07-20T06:36:28;99891.44;;;21.93;45.46
29215;BME280;16252;49.816;7.964;2023-07-20T06:38:54;99904.28;;;21.99;45.41
29215;BME280;16252;49.816;7.964;2023-07-20T06:41:19;99884.94;;;21.94;45.54
29215;BME280;16252;49.816;7.964;2023-07-20T06:43:45;99878.28;;;21.97;45.61
29215;BME280;16252;49.816;7.964;2023-07-20T06:46:10;99882.56;;;22.06;46.01
29215;BME280;16252;49.816;7.964;2023-07-20T06:48:36;99889.19;;;22.18;45.64
29215;BME280;16252;49.816;7.964;2023-07-20T06:51:01;99867.97;;;22.14;45.74
29215;BME280;16252;49.816;7.964;2023-07-20T06:53:27;99896.25;;;22.34;45.70
29215;BME280;16252;49.816;7.964;2023-07-20T06:55:53;99876.72;;;22.31;45.62
29215;BME280;16252;49.816;7.964;2023-07-20T06:58:18;99894.94;;;22.52;45.67
29215;BME280;16252;49.816;7.964;2023-07-20T07:00:44;99891.22;;;22.59;45.69
29215;BME280;16252;49.816;7.964;2023-07-20T07:03:10;99890.03;;;22.68;45.75
29215;BME280;16252;49.816;7.964;2023-07-20T07:05:36;99893.09;;;22.87;45.50
29215;BME280;16252;49.816;7.964;2023-07-20T07:08:02;99905.22;;;23.06;45.16
29215;BME280;16252;49.816;7.964;2023-07-20T07:10:28;99894.16;;;23.21;45.02
29215;BME280;16252;49.816;7.964;2023-07-20T07:12:53;99903.91;;;23.36;44.68
29215;BME280;16252;49.816;7.964;2023-07-20T07:15:18;99913.66;;;23.52;44.39
29215;BME280;16252;49.816;7.964;2023-07-20T07:17:44;99899.19;;;23.65;44.37
29215;BME280;16252;49.816;7.964;2023-07-20T07:20:09;99902.00;;;23.78;44.19
29215;BME280;16252;49.816;7.964;2023-07-20T07:22:34;99893.06;;;23.56;44.60
29215;BME280;16252;49.816;7.964;2023-07-20T07:24:59;99904.75;;;23.92;44.38
29215;BME280;16252;49.816;7.964;2023-07-20T07:27:25;99898.94;;;24.21;43.92
29215;BME280;16252;49.816;7.964;2023-07-20T07:29:50;99899.81;;;24.55;43.71
29215;BME280;16252;49.816;7.964;2023-07-20T07:32:16;99905.91;;;24.84;43.15
29215;BME280;16252;49.816;7.964;2023-07-20T07:34:41;99891.13;;;25.05;42.66
29215;BME280;16252;49.816;7.964;2023-07-20T07:37:06;99901.94;;;25.51;43.10
29215;BME280;16252;49.816;7.964;2023-07-20T07:39:31;99908.69;;;26.01;42.91
29215;BME280;16252;49.816;7.964;2023-07-20T07:41:57;99894.50;;;26.67;42.95
29215;BME280;16252;49.816;7.964;2023-07-20T07:44:22;99903.50;;;27.55;41.85
29215;BME280;16252;49.816;7.964;2023-07-20T07:46:48;99908.63;;;28.42;43.72
29215;BME280;16252;49.816;7.964;2023-07-20T07:49:13;99923.91;;;29.27;43.92
29215;BME280;16252;49.816;7.964;2023-07-20T07:51:39;99914.56;;;30.09;43.94
29215;BME280;16252;49.816;7.964;2023-07-20T07:54:04;99915.41;;;30.88;41.83
29215;BME280;16252;49.816;7.964;2023-07-20T07:56:29;99918.28;;;31.55;42.25
29215;BME280;16252;49.816;7.964;2023-07-20T07:58:54;99916.13;;;32.06;41.81
29215;BME280;16252;49.816;7.964;2023-07-20T08:01:20;99912.69;;;32.53;41.69
29215;BME280;16252;49.816;7.964;2023-07-20T08:03:45;99923.63;;;33.02;41.55
29215;BME280;16252;49.816;7.964;2023-07-20T08:06:12;99922.75;;;33.44;40.66
29215;BME280;16252;49.816;7.964;2023-07-20T08:08:37;99925.38;;;33.71;39.58
29215;BME280;16252;49.816;7.964;2023-07-20T08:11:03;99926.81;;;33.89;39.38
29215;BME280;16252;49.816;7.964;2023-07-20T08:13:29;99931.84;;;34.02;39.14
29215;BME280;16252;49.816;7.964;2023-07-20T08:15:54;99932.97;;;34.01;38.54
29215;BME280;16252;49.816;7.964;2023-07-20T08:18:19;99924.59;;;33.86;37.55
29215;BME280;16252;49.816;7.964;2023-07-20T08:20:45;99927.03;;;33.72;37.81
29215;BME280;16252;49.816;7.964;2023-07-20T08:23:10;99929.78;;;33.62;38.11
29215;BME280;16252;49.816;7.964;2023-07-20T08:25:39;99934.69;;;33.50;37.62
29215;BME280;16252;49.816;7.964;2023-07-20T08:28:07;99920.72;;;33.29;37.57
29215;BME280;16252;49.816;7.964;2023-07-20T08:30:40;99921.09;;;33.00;36.93
29215;BME280;16252;49.816;7.964;2023-07-20T08:33:05;99918.38;;;32.68;36.83
29215;BME280;16252;49.816;7.964;2023-07-20T08:35:30;99924.25;;;32.45;37.65
29215;BME280;16252;49.816;7.964;2023-07-20T08:37:55;99913.91;;;32.35;38.00
29215;BME280;16252;49.816;7.964;2023-07-20T08:40:20;99916.97;;;32.38;38.28
29215;BME280;16252;49.816;7.964;2023-07-20T08:42:46;99912.50;;;32.59;38.92
29215;BME280;16252;49.816;7.964;2023-07-20T08:45:11;99872.34;;;32.62;38.92
29215;BME280;16252;49.816;7.964;2023-07-20T08:47:38;99912.00;;;33.05;38.30
29215;BME280;16252;49.816;7.964;2023-07-20T08:50:03;99907.91;;;33.13;38.05
29215;BME280;16252;49.816;7.964;2023-07-20T08:52:31;99915.69;;;33.21;38.05
29215;BME280;16252;49.816;7.964;2023-07-20T08:54:59;99916.09;;;33.40;38.55
29215;BME280;16252;49.816;7.964;2023-07-20T08:57:28;99911.75;;;33.59;36.46
29215;BME280;16252;49.816;7.964;2023-07-20T08:59:53;99911.75;;;33.64;36.68
29215;BME280;16252;49.816;7.964;2023-07-20T09:02:18;99909.50;;;33.56;36.46
29215;BME280;16252;49.816;7.964;2023-07-20T09:04:46;99910.50;;;33.35;36.44
29215;BME280;16252;49.816;7.964;2023-07-20T09:07:11;99904.28;;;33.07;36.13
29215;BME280;16252;49.816;7.964;2023-07-20T09:09:39;99901.53;;;32.75;36.06
29215;BME280;16252;49.816;7.964;2023-07-20T09:12:04;99913.13;;;32.39;36.11
29215;BME280;16252;49.816;7.964;2023-07-20T09:14:30;99905.66;;;32.13;35.83
29215;BME280;16252;49.816;7.964;2023-07-20T09:16:56;99896.72;;;32.01;35.83
29215;BME280;16252;49.816;7.964;2023-07-20T09:19:21;99900.09;;;32.08;35.71
29215;BME280;16252;49.816;7.964;2023-07-20T09:21:48;99907.16;;;32.26;37.33
29215;BME280;16252;49.816;7.964;2023-07-20T09:24:13;99899.06;;;32.46;37.61
29215;BME280;16252;49.816;7.964;2023-07-20T09:26:42;99902.00;;;32.62;36.98
29215;BME280;16252;49.816;7.964;2023-07-20T09:29:08;99905.63;;;32.67;35.63
29215;BME280;16252;49.816;7.964;2023-07-20T09:31:37;99910.09;;;32.73;36.59
29215;BME280;16252;49.816;7.964;2023-07-20T09:34:02;99909.84;;;32.75;36.52
29215;BME280;16252;49.816;7.964;2023-07-20T09:36:28;99896.59;;;32.82;36.19
29215;BME280;16252;49.816;7.964;2023-07-20T09:38:54;99898.91;;;33.00;36.31
29215;BME280;16252;49.816;7.964;2023-07-20T09:41:20;99891.91;;;33.30;37.04
29215;BME280;16252;49.816;7.964;2023-07-20T09:43:46;99895.69;;;33.66;36.41
29215;BME280;16252;49.816;7.964;2023-07-20T09:46:11;99899.09;;;34.04;34.50
29215;BME280;16252;49.816;7.964;2023-07-20T09:48:36;99897.50;;;34.34;35.99
29215;BME280;16252;49.816;7.964;2023-07-20T09:51:02;99900.84;;;34.57;36.01
29215;BME280;16252;49.816;7.964;2023-07-20T09:53:28;99897.53;;;34.65;34.46
29215;BME280;16252;49.816;7.964;2023-07-20T09:55:53;99882.50;;;34.61;34.80
29215;BME280;16252;49.816;7.964;2023-07-20T09:58:19;99885.56;;;34.44;32.25
29215;BME280;16252;49.816;7.964;2023-07-20T10:00:45;99878.59;;;34.21;33.22
29215;BME280;16252;49.816;7.964;2023-07-20T10:03:19;99878.00;;;33.93;33.48
29215;BME280;16252;49.816;7.964;2023-07-20T10:05:51;99887.91;;;33.63;33.52
29215;BME280;16252;49.816;7.964;2023-07-20T10:08:17;99882.75;;;33.35;33.17
29215;BME280;16252;49.816;7.964;2023-07-20T10:10:44;99870.47;;;33.10;33.66
29215;BME280;16252;49.816;7.964;2023-07-20T10:13:10;99875.31;;;32.93;34.27
29215;BME280;16252;49.816;7.964;2023-07-20T10:21:11;99859.88;;;32.59;34.58
29215;BME280;16252;49.816;7.964;2023-07-20T10:23:37;99867.31;;;32.54;34.54
29215;BME280;16252;49.816;7.964;2023-07-20T10:26:03;99863.91;;;32.47;34.60
29215;BME280;16252;49.816;7.964;2023-07-20T10:28:29;99858.00;;;32.38;34.60
29215;BME280;16252;49.816;7.964;2023-07-20T10:30:54;99858.75;;;32.28;34.71
29215;BME280;16252;49.816;7.964;2023-07-20T10:33:19;99849.53;;;32.17;34.06
29215;BME280;16252;49.816;7.964;2023-07-20T10:35:51;99855.25;;;32.06;34.33
29215;BME280;16252;49.816;7.964;2023-07-20T10:38:17;99848.44;;;31.91;34.06
29215;BME280;16252;49.816;7.964;2023-07-20T10:40:42;99848.34;;;31.81;34.11
29215;BME280;16252;49.816;7.964;2023-07-20T10:43:08;99844.34;;;31.72;34.17
29215;BME280;16252;49.816;7.964;2023-07-20T10:45:40;99847.00;;;31.62;33.89
29215;BME280;16252;49.816;7.964;2023-07-20T10:48:08;99835.25;;;31.49;34.15
29215;BME280;16252;49.816;7.964;2023-07-20T10:50:37;99832.72;;;31.43;34.19
29215;BME280;16252;49.816;7.964;2023-07-20T10:53:12;99842.59;;;31.39;33.91
29215;BME280;16252;49.816;7.964;2023-07-20T10:55:38;99832.03;;;31.36;34.01
29215;BME280;16252;49.816;7.964;2023-07-20T10:58:14;99833.13;;;31.35;33.85
29215;BME280;16252;49.816;7.964;2023-07-20T11:00:58;99830.34;;;31.35;33.80
29215;BME280;16252;49.816;7.964;2023-07-20T11:03:32;99824.00;;;31.34;31.28
29215;BME280;16252;49.816;7.964;2023-07-20T11:05:58;99829.53;;;31.34;33.65
29215;BME280;16252;49.816;7.964;2023-07-20T11:08:39;99830.63;;;31.33;33.87
29215;BME280;16252;49.816;7.964;2023-07-20T11:11:23;99831.16;;;31.30;33.63
29215;BME280;16252;49.816;7.964;2023-07-20T11:13:56;99825.81;;;31.23;33.50
29215;BME280;16252;49.816;7.964;2023-07-20T11:16:43;99829.63;;;31.17;33.58
29215;BME280;16252;49.816;7.964;2023-07-20T11:19:18;99827.56;;;31.07;33.73
29215;BME280;16252;49.816;7.964;2023-07-20T11:21:44;99827.72;;;31.01;33.67
29215;BME280;16252;49.816;7.964;2023-07-20T11:24:09;99821.91;;;30.97;33.76
29215;BME280;16252;49.816;7.964;2023-07-20T11:26:48;99816.84;;;30.94;33.96
29215;BME280;16252;49.816;7.964;2023-07-20T11:29:14;99817.13;;;30.93;34.01
29215;BME280;16252;49.816;7.964;2023-07-20T11:31:40;99825.66;;;30.91;34.16
29215;BME280;16252;49.816;7.964;2023-07-20T11:34:09;99822.91;;;30.91;33.71
29215;BME280;16252;49.816;7.964;2023-07-20T11:36:34;99819.06;;;30.92;33.79
29215;BME280;16252;49.816;7.964;2023-07-20T11:39:00;99814.63;;;30.91;33.62
29215;BME280;16252;49.816;7.964;2023-07-20T11:41:25;99810.19;;;30.90;32.81
29215;BME280;16252;49.816;7.964;2023-07-20T11:43:53;99822.06;;;30.91;33.83
29215;BME280;16252;49.816;7.964;2023-07-20T11:46:19;99806.31;;;30.91;33.59
29215;BME280;16252;49.816;7.964;2023-07-20T11:48:44;99808.25;;;30.91;33.87
29215;BME280;16252;49.816;7.964;2023-07-20T11:51:16;99805.50;;;30.91;33.88
29215;BME280;16252;49.816;7.964;2023-07-20T11:53:42;99806.00;;;30.87;33.79
29215;BME280;16252;49.816;7.964;2023-07-20T11:56:08;99797.66;;;30.82;33.76
29215;BME280;16252;49.816;7.964;2023-07-20T11:58:33;99796.72;;;30.77;33.59
29215;BME280;16252;49.816;7.964;2023-07-20T12:00:58;99801.59;;;30.70;33.45
29215;BME280;16252;49.816;7.964;2023-07-20T12:03:23;99788.31;;;30.66;33.50
29215;BME280;16252;49.816;7.964;2023-07-20T12:05:49;99791.31;;;30.65;33.69
29215;BME280;16252;49.816;7.964;2023-07-20T12:08:15;99786.88;;;30.64;33.44
29215;BME280;16252;49.816;7.964;2023-07-20T12:10:40;99787.97;;;30.63;33.49
29215;BME280;16252;49.816;7.964;2023-07-20T12:13:09;99781.63;;;30.62;32.81
29215;BME280;16252;49.816;7.964;2023-07-20T12:15:35;99786.03;;;30.63;33.21
29215;BME280;16252;49.816;7.964;2023-07-20T12:18:02;99783.03;;;30.65;33.75
29215;BME280;16252;49.816;7.964;2023-07-20T12:20:37;99781.38;;;30.64;33.42
29215;BME280;16252;49.816;7.964;2023-07-20T12:23:04;99776.91;;;30.63;33.49
29215;BME280;16252;49.816;7.964;2023-07-20T12:28:01;99775.50;;;30.60;32.98
29215;BME280;16252;49.816;7.964;2023-07-20T12:30:27;99773.00;;;30.59;33.19
29215;BME280;16252;49.816;7.964;2023-07-20T12:32:53;99780.44;;;30.58;33.21
29215;BME280;16252;49.816;7.964;2023-07-20T12:35:18;99772.66;;;30.55;33.25
29215;BME280;16252;49.816;7.964;2023-07-20T12:37:43;99769.31;;;30.53;33.11
29215;BME280;16252;49.816;7.964;2023-07-20T12:40:08;99765.16;;;30.51;33.02
29215;BME280;16252;49.816;7.964;2023-07-20T12:42:35;99761.25;;;30.47;32.76
29215;BME280;16252;49.816;7.964;2023-07-20T12:45:01;99765.91;;;30.46;32.75
29215;BME280;16252;49.816;7.964;2023-07-20T12:47:26;99759.81;;;30.44;32.60
29215;BME280;16252;49.816;7.964;2023-07-20T12:49:51;99755.38;;;30.43;31.66
29215;BME280;16252;49.816;7.964;2023-07-20T12:52:16;99749.63;;;30.44;32.27
29215;BME280;16252;49.816;7.964;2023-07-20T12:54:41;99753.19;;;30.45;32.77
29215;BME280;16252;49.816;7.964;2023-07-20T12:57:07;99749.09;;;30.48;32.98
29215;BME280;16252;49.816;7.964;2023-07-20T12:59:32;99758.22;;;30.48;32.85
29215;BME280;16252;49.816;7.964;2023-07-20T13:01:57;99750.50;;;30.50;33.11
29215;BME280;16252;49.816;7.964;2023-07-20T13:04:22;99750.28;;;30.52;32.85
29215;BME280;16252;49.816;7.964;2023-07-20T13:06:48;99745.34;;;30.54;33.09
29215;BME280;16252;49.816;7.964;2023-07-20T13:09:13;99742.31;;;30.55;32.61
29215;BME280;16252;49.816;7.964;2023-07-20T13:11:38;99730.19;;;30.56;32.70
29215;BME280;16252;49.816;7.964;2023-07-20T13:14:03;99727.44;;;30.56;32.53
29215;BME280;16252;49.816;7.964;2023-07-20T13:16:28;99720.22;;;30.55;31.69